Time,TemperatureF,DewpointF,PressureIn,WindDirection,WindDirectionDegrees,WindSpeedMPH,WindSpeedGustMPH,Humidity,HourlyPrecipIn,Conditions,Clouds,dailyrainin,SoftwareType,DateUTC
2013-04-04 00:19:00,42.6,42.3,30.04,NNW,337,5.3,-999.0,99,-99.99,,,0.00,Acu-Link.com,2013-04-04 05:19:00,
2013-04-04 00:34:00,42.6,42.3,30.05,North,0,6.8,-999.0,99,-99.99,,,0.00,Acu-Link.com,2013-04-04 05:34:00,
2013-04-04 00:50:00,42.8,42.0,30.04,WNW,292,3.7,-999.0,97,-99.99,,,0.00,Acu-Link.com,2013-04-04 05:50:00,
2013-04-04 01:05:00,43.0,42.2,30.04,NNW,337,3.7,-999.0,97,-99.99,,,0.00,Acu-Link.com,2013-04-04 06:05:00,
2013-04-04 01:21:00,42.8,42.3,30.04,NNE,22,5.8,-999.0,98,-99.99,,,0.00,Acu-Link.com,2013-04-04 06:21:00,
2013-04-04 02:07:00,42.4,41.3,30.04,NNE,22,6.8,-999.0,96,-99.99,,,0.00,Acu-Link.com,2013-04-04 07:07:00,
2013-04-04 02:22:00,42.4,41.1,30.03,NNW,337,9.9,-999.0,95,-99.99,,,0.00,Acu-Link.com,2013-04-04 07:22:00,
2013-04-04 02:37:00,41.9,40.6,30.03,NNW,337,6.8,-999.0,95,-99.99,,,0.00,Acu-Link.com,2013-04-04 07:37:00,
2013-04-04 02:52:00,41.7,40.4,30.03,NNW,337,6.8,-999.0,95,-99.99,,,0.00,Acu-Link.com,2013-04-04 07:52:00,
2013-04-04 03:08:00,41.7,40.4,30.03,NW,315,4.7,-999.0,95,-99.99,,,0.00,Acu-Link.com,2013-04-04 08:08:00,
2013-04-04 03:23:00,41.7,40.4,30.02,West,270,4.7,-999.0,95,-99.99,,,0.00,Acu-Link.com,2013-04-04 08:23:00,
2013-04-04 03:38:00,41.5,40.7,30.02,NNW,337,4.7,-999.0,97,-99.99,,,0.00,Acu-Link.com,2013-04-04 08:38:00,
2013-04-04 03:53:00,41.4,40.6,30.01,NW,315,5.3,-999.0,97,-99.99,,,0.00,Acu-Link.com,2013-04-04 08:53:00,
2013-04-04 04:08:00,41.4,40.3,30.02,NW,315,4.7,-999.0,96,-99.99,,,0.00,Acu-Link.com,2013-04-04 09:08:00,
2013-04-04 04:23:00,41.4,40.1,30.02,NW,315,4.2,-999.0,95,-99.99,,,0.00,Acu-Link.com,2013-04-04 09:23:00,
2013-04-04 04:39:00,41.5,40.2,30.02,NNW,337,5.8,-999.0,95,-99.99,,,0.00,Acu-Link.com,2013-04-04 09:39:00,
2013-04-04 04:54:00,41.4,40.3,30.02,NNW,337,5.8,-999.0,96,-99.99,,,0.00,Acu-Link.com,2013-04-04 09:54:00,
2013-04-04 05:24:00,41.5,39.9,30.02,NNW,337,3.7,-999.0,94,-99.99,,,0.00,Acu-Link.com,2013-04-04 10:24:00,
2013-04-04 05:39:00,41.5,39.4,30.02,NNW,337,6.3,-999.0,92,-99.99,,,0.00,Acu-Link.com,2013-04-04 10:39:00,
2013-04-04 05:54:00,41.4,39.0,30.02,NNW,337,8.3,-999.0,91,-99.99,,,0.00,Acu-Link.com,2013-04-04 10:54:00,
2013-04-04 06:24:00,41.4,38.7,30.02,NW,315,5.8,-999.0,90,-99.99,,,0.00,Acu-Link.com,2013-04-04 11:24:00,
2013-04-04 06:39:00,41.2,38.5,30.02,NNW,337,8.3,-999.0,90,-99.99,,,0.00,Acu-Link.com,2013-04-04 11:39:00,
2013-04-04 06:55:00,41.0,38.3,30.03,NNW,337,9.9,-999.0,90,-99.99,,,0.00,Acu-Link.com,2013-04-04 11:55:00,
2013-04-04 07:25:00,40.8,38.4,30.04,NW,315,4.2,-999.0,91,-99.99,,,0.00,Acu-Link.com,2013-04-04 12:25:00,
2013-04-04 07:40:00,40.8,38.7,30.04,NW,315,8.3,-999.0,92,-99.99,,,0.00,Acu-Link.com,2013-04-04 12:40:00,
2013-04-04 07:56:00,40.8,38.4,30.05,NW,315,7.8,-999.0,91,-99.99,,,0.00,Acu-Link.com,2013-04-04 12:56:00,
2013-04-04 08:11:00,40.8,38.1,30.06,NNE,22,8.3,-999.0,90,-99.99,,,0.00,Acu-Link.com,2013-04-04 13:11:00,
2013-04-04 08:26:00,41.0,38.6,30.06,WNW,292,5.8,-999.0,91,-99.99,,,0.00,Acu-Link.com,2013-04-04 13:26:00,
2013-04-04 08:42:00,41.4,38.4,30.07,NW,315,5.3,-999.0,89,-99.99,,,0.00,Acu-Link.com,2013-04-04 13:42:00,
2013-04-04 08:57:00,42.1,38.5,30.08,West,270,7.3,-999.0,87,-99.99,,,0.00,Acu-Link.com,2013-04-04 13:57:00,
2013-04-04 09:27:00,42.3,39.0,30.09,WNW,292,5.8,-999.0,88,-99.99,,,0.00,Acu-Link.com,2013-04-04 14:27:00,
2013-04-04 09:43:00,42.1,39.1,30.09,NNW,337,4.2,-999.0,89,-99.99,,,0.00,Acu-Link.com,2013-04-04 14:43:00,
2013-04-04 09:58:00,42.1,38.8,30.10,NW,315,6.3,-999.0,88,-99.99,,,0.00,Acu-Link.com,2013-04-04 14:58:00,
2013-04-04 10:13:00,42.3,38.4,30.11,NW,315,6.3,-999.0,86,-99.99,,,0.00,Acu-Link.com,2013-04-04 15:13:00,
2013-04-04 10:28:00,42.6,38.4,30.11,West,270,6.3,-999.0,85,-99.99,,,0.00,Acu-Link.com,2013-04-04 15:28:00,
2013-04-04 10:59:00,44.8,38.7,30.11,West,270,3.7,-999.0,79,-99.99,,,0.00,Acu-Link.com,2013-04-04 15:59:00,
2013-04-04 11:29:00,45.3,39.5,30.12,WNW,292,7.3,-999.0,80,-99.99,,,0.00,Acu-Link.com,2013-04-04 16:29:00,
2013-04-04 11:59:00,45.5,39.4,30.11,WNW,292,6.3,-999.0,79,-99.99,,,0.00,Acu-Link.com,2013-04-04 16:59:00,
2013-04-04 12:14:00,45.3,39.2,30.12,West,270,7.3,-999.0,79,-99.99,,,0.00,Acu-Link.com,2013-04-04 17:14:00,
2013-04-04 12:30:00,46.0,39.5,30.11,West,270,6.3,-999.0,78,-99.99,,,0.00,Acu-Link.com,2013-04-04 17:30:00,
2013-04-04 12:45:00,46.9,39.7,30.11,NNW,337,5.8,-999.0,76,-99.99,,,0.00,Acu-Link.com,2013-04-04 17:45:00,
2013-04-04 13:00:00,48.4,40.5,30.11,West,270,5.3,-999.0,74,-99.99,,,0.00,Acu-Link.com,2013-04-04 18:00:00,
2013-04-04 13:15:00,48.4,40.2,30.10,West,270,9.9,-999.0,73,-99.99,,,0.00,Acu-Link.com,2013-04-04 18:15:00,
2013-04-04 13:46:00,50.4,41.0,30.09,North,0,6.8,-999.0,70,-99.99,,,0.00,Acu-Link.com,2013-04-04 18:46:00,
2013-04-04 14:01:00,50.7,41.3,30.09,WNW,292,7.3,-999.0,70,-99.99,,,0.00,Acu-Link.com,2013-04-04 19:01:00,
2013-04-04 14:17:00,50.7,40.9,30.07,NW,315,8.3,-999.0,69,-99.99,,,0.00,Acu-Link.com,2013-04-04 19:17:00,
2013-04-04 14:33:00,50.9,41.1,30.07,WNW,292,5.8,-999.0,69,-99.99,,,0.00,Acu-Link.com,2013-04-04 19:33:00,
2013-04-04 14:48:00,51.1,41.3,30.07,North,0,5.3,-999.0,69,-99.99,,,0.00,Acu-Link.com,2013-04-04 19:48:00,
2013-04-04 15:03:00,52.3,41.7,30.05,NNW,337,3.2,-999.0,67,-99.99,,,0.00,Acu-Link.com,2013-04-04 20:03:00,
2013-04-04 15:19:00,51.8,41.6,30.05,NE,45,6.3,-999.0,68,-99.99,,,0.00,Acu-Link.com,2013-04-04 20:19:00,
2013-04-04 15:49:00,55.4,42.6,30.03,NNW,337,7.3,-999.0,62,-99.99,,,0.00,Acu-Link.com,2013-04-04 20:49:00,
2013-04-04 16:04:00,55.2,42.8,30.03,WNW,292,7.3,-999.0,63,-99.99,,,0.00,Acu-Link.com,2013-04-04 21:04:00,
2013-04-04 16:20:00,55.4,42.6,30.02,NNW,337,9.9,-999.0,62,-99.99,,,0.00,Acu-Link.com,2013-04-04 21:20:00,
2013-04-04 16:35:00,56.3,43.0,30.02,NE,45,6.8,-999.0,61,-99.99,,,0.00,Acu-Link.com,2013-04-04 21:35:00,
2013-04-04 16:50:00,57.7,43.0,30.02,WNW,292,4.7,-999.0,58,-99.99,,,0.00,Acu-Link.com,2013-04-04 21:50:00,
2013-04-04 17:05:00,57.0,42.4,30.02,NNW,337,6.8,-999.0,58,-99.99,,,0.00,Acu-Link.com,2013-04-04 22:05:00,
2013-04-04 17:21:00,57.0,42.8,30.01,NNE,22,8.3,-999.0,59,-99.99,,,0.00,Acu-Link.com,2013-04-04 22:21:00,
2013-04-04 17:37:00,58.5,43.3,30.01,WNW,292,4.7,-999.0,57,-99.99,,,0.00,Acu-Link.com,2013-04-04 22:37:00,
2013-04-04 17:52:00,57.7,43.0,30.01,NE,45,9.9,-999.0,58,-99.99,,,0.00,Acu-Link.com,2013-04-04 22:52:00,
2013-04-04 18:07:00,57.9,42.8,30.00,NNE,22,8.9,-999.0,57,-99.99,,,0.00,Acu-Link.com,2013-04-04 23:07:00,
2013-04-04 18:22:00,58.8,42.7,30.01,WNW,292,6.3,-999.0,55,-99.99,,,0.00,Acu-Link.com,2013-04-04 23:22:00,
2013-04-04 18:37:00,58.1,42.5,30.00,NNE,22,8.3,-999.0,56,-99.99,,,0.00,Acu-Link.com,2013-04-04 23:37:00,
2013-04-04 18:52:00,59.0,42.9,30.00,WSW,247,6.8,-999.0,55,-99.99,,,0.00,Acu-Link.com,2013-04-04 23:52:00,
2013-04-04 19:08:00,57.6,42.5,30.00,WNW,292,5.8,-999.0,57,-99.99,,,0.00,Acu-Link.com,2013-04-05 00:08:00,
2013-04-04 19:23:00,56.5,42.3,29.99,NE,45,5.3,-999.0,59,-99.99,,,0.00,Acu-Link.com,2013-04-05 00:23:00,
2013-04-04 19:54:00,54.1,42.6,29.98,NNE,22,3.2,-999.0,65,-99.99,,,0.00,Acu-Link.com,2013-04-05 00:54:00,
2013-04-04 20:09:00,53.1,42.4,29.98,NE,45,2.2,-999.0,67,-99.99,,,0.00,Acu-Link.com,2013-04-05 01:09:00,
2013-04-04 20:39:00,51.1,42.0,30.00,NE,45,1.1,-999.0,71,-99.99,,,0.00,Acu-Link.com,2013-04-05 01:39:00,
2013-04-04 20:54:00,50.0,41.7,30.00,NE,45,0.0,-999.0,73,-99.99,,,0.00,Acu-Link.com,2013-04-05 01:54:00,
2013-04-04 21:10:00,49.1,41.9,30.00,NE,45,2.2,-999.0,76,-99.99,,,0.00,Acu-Link.com,2013-04-05 02:10:00,
2013-04-04 21:25:00,48.6,41.7,30.01,NE,45,2.2,-999.0,77,-99.99,,,0.00,Acu-Link.com,2013-04-05 02:25:00,
2013-04-04 21:40:00,47.7,41.8,30.01,NE,45,1.1,-999.0,80,-99.99,,,0.00,Acu-Link.com,2013-04-05 02:40:00,
2013-04-04 21:55:00,47.1,41.9,30.02,NE,45,1.7,-999.0,82,-99.99,,,0.00,Acu-Link.com,2013-04-05 02:55:00,
2013-04-04 22:10:00,46.6,42.0,30.03,NE,45,3.2,-999.0,84,-99.99,,,0.00,Acu-Link.com,2013-04-05 03:10:00,
2013-04-04 22:25:00,45.9,41.6,30.05,NE,45,0.0,-999.0,85,-99.99,,,0.00,Acu-Link.com,2013-04-05 03:25:00,
2013-04-04 22:56:00,45.0,41.7,30.05,NE,45,3.2,-999.0,88,-99.99,,,0.00,Acu-Link.com,2013-04-05 03:56:00,
2013-04-04 23:11:00,44.4,41.1,30.06,NE,45,2.2,-999.0,88,-99.99,,,0.00,Acu-Link.com,2013-04-05 04:11:00,
2013-04-04 23:27:00,43.7,40.7,30.05,NE,45,1.7,-999.0,89,-99.99,,,0.00,Acu-Link.com,2013-04-05 04:27:00,
2013-04-04 23:42:00,42.8,40.4,30.06,NE,45,0.0,-999.0,91,-99.99,,,0.00,Acu-Link.com,2013-04-05 04:42:00,
2013-04-04 23:58:00,41.9,39.7,30.06,NE,45,0.0,-999.0,92,-99.99,,,0.00,Acu-Link.com,2013-04-05 04:58:00,